»·PEaware :: UAL1620 KPSP-KSFO

UAL1620 :: KPSP-KSFO

FLIGHT INFORMATION

Flight Status: Arrived
Operator:
United Airlines
More flights by this operator :: More flights under this callsign
Pilot: Luca P. (13273)
Aircraft: AIRBUS A320
(A320)
More flights by this aircraft type
Origin: KPSP Palm Springs Intl
United States
Destination: KSFO San Francisco Intl
United States
More flights between these airports :: More routes between these airports
Route: +CATH1 PSP V386 PMD AVE MAKRS SERFR SERFR2
File this flight plan on PilotEdge
Remarks: PBN / A1B1C1D1L1O1S1 NAV / RNVD1E2A1 DOF / 180106 REG / N411UA EET / KZOA0039 SEL / ESBJ CODE / A4D99A OPR / UAL PER / C
Altitude:
(Current/Filed)
30,000ft
Speed:
(Current/Filed)
466kts
Departed: 06-Jan-18 03:44 PM
Arrived: 06-Jan-18 04:58 PM
Distance/Time
Traveled:
366nm/1:13
Distance/Time
To Go:
Arrived

Flight Plot

Page will automatically refresh every two minutes.


Map Options




Map Legend


Flown Route
Filed Route
Departure Airport
Arrival Airport
Navaid (VOR, NDB)
Fix

Horizontal Profiles

Position Reports

Time Latitude Longitude Heading Altitude Ground
Speed
06-Jan-18 15:18 33.821035 -116.507053 314 491ft 0kts
06-Jan-18 15:19 33.821035 -116.507053 314 491ft 0kts
06-Jan-18 15:20 33.821035 -116.507053 314 491ft 0kts
06-Jan-18 15:21 33.821035 -116.507053 314 491ft 0kts
06-Jan-18 15:22 33.821035 -116.507053 314 491ft 0kts
06-Jan-18 15:23 33.821035 -116.507053 314 491ft 0kts
06-Jan-18 15:24 33.821035 -116.507053 314 491ft 0kts
06-Jan-18 15:25 33.821035 -116.507053 314 491ft 0kts
06-Jan-18 15:26 33.821035 -116.507053 314 491ft 0kts
06-Jan-18 15:27 33.821035 -116.507053 314 491ft 0kts
06-Jan-18 15:28 33.821035 -116.507053 314 491ft 0kts
06-Jan-18 15:29 33.821035 -116.507053 314 491ft 0kts
06-Jan-18 15:30 33.821035 -116.507053 314 491ft 0kts
06-Jan-18 15:31 33.821035 -116.507053 314 491ft 0kts
06-Jan-18 15:32 33.821035 -116.507053 314 491ft 0kts
06-Jan-18 15:33 33.821035 -116.507053 314 491ft 0kts
06-Jan-18 15:34 33.821035 -116.507053 314 491ft 0kts
06-Jan-18 15:35 33.820737 -116.506696 314 491ft 2kts
06-Jan-18 15:36 33.820397 -116.506289 314 491ft 0kts
06-Jan-18 15:37 33.820398 -116.506289 314 491ft 0kts
06-Jan-18 15:38 33.820398 -116.506290 314 491ft 0kts
06-Jan-18 15:39 33.820399 -116.506290 314 491ft 0kts
06-Jan-18 15:40 33.820618 -116.506308 13 491ft 3kts
06-Jan-18 15:41 33.822331 -116.505397 51 491ft 2kts
06-Jan-18 15:42 33.822477 -116.505163 53 491ft 0kts
06-Jan-18 15:43 33.822929 -116.504423 53 491ft 0kts
06-Jan-18 15:44 33.822930 -116.504422 53 491ft 0kts
06-Jan-18 15:45 33.822930 -116.504422 53 491ft 0kts
06-Jan-18 15:46 33.822804 -116.503686 146 491ft 6kts
06-Jan-18 15:47 33.820362 -116.501368 139 491ft 15kts
06-Jan-18 15:48 33.818510 -116.499176 86 491ft 1kts
06-Jan-18 15:49 33.819246 -116.498376 324 491ft 9kts
06-Jan-18 15:50 33.846144 -116.521441 339 1479ft 180kts
06-Jan-18 15:51 33.869464 -116.479432 97 3756ft 210kts
06-Jan-18 15:52 33.859163 -116.401010 119 5823ft 262kts
06-Jan-18 15:53 33.821114 -116.317589 117 8385ft 295kts
06-Jan-18 15:54 33.829286 -116.226619 37 11113ft 305kts
06-Jan-18 15:55 33.907346 -116.225002 326 13078ft 315kts
06-Jan-18 15:56 33.967481 -116.307418 287 13743ft 351kts
06-Jan-18 15:57 34.000015 -116.398793 292 15675ft 359kts
06-Jan-18 15:58 34.050388 -116.527411 291 18127ft 369kts
06-Jan-18 15:59 34.094241 -116.640796 291 20060ft 378kts
06-Jan-18 16:00 34.131529 -116.737604 290 21540ft 384kts
06-Jan-18 16:01 34.176872 -116.855722 290 23161ft 391kts
06-Jan-18 16:02 34.230850 -116.996864 290 24841ft 400kts
06-Jan-18 16:03 34.269862 -117.099146 289 25984ft 405kts
06-Jan-18 16:04 34.317095 -117.223643 289 27284ft 409kts
06-Jan-18 16:05 34.364022 -117.347731 287 28963ft 402kts
06-Jan-18 16:06 34.410111 -117.469896 287 30177ft 396kts
06-Jan-18 16:07 34.455753 -117.591644 287 30171ft 397kts
06-Jan-18 16:08 34.501350 -117.713457 287 30171ft 397kts
06-Jan-18 16:09 34.546775 -117.835370 287 30174ft 397kts
06-Jan-18 16:10 34.592196 -117.957690 286 30204ft 396kts
06-Jan-18 16:11 34.639242 -118.078611 293 30219ft 401kts
06-Jan-18 16:12 34.701372 -118.192024 294 30171ft 402kts
06-Jan-18 16:13 34.762426 -118.305012 294 30202ft 398kts
06-Jan-18 16:14 34.823128 -118.417283 294 30199ft 396kts
06-Jan-18 16:15 34.883388 -118.529126 293 30230ft 393kts
06-Jan-18 16:16 34.943088 -118.640363 293 30189ft 392kts
06-Jan-18 16:17 35.002845 -118.751899 293 30269ft 390kts
06-Jan-18 16:18 35.061908 -118.862676 293 30276ft 389kts
06-Jan-18 16:19 35.120589 -118.973008 292 30256ft 386kts
06-Jan-18 16:20 35.165078 -119.056895 292 30191ft 386kts
06-Jan-18 16:21 35.223397 -119.167090 292 30215ft 385kts
06-Jan-18 16:22 35.281200 -119.276655 292 30249ft 382kts
06-Jan-18 16:23 35.338658 -119.386064 292 30213ft 380kts
06-Jan-18 16:24 35.395736 -119.494823 291 30227ft 378kts
06-Jan-18 16:25 35.452243 -119.603128 291 30234ft 376kts
06-Jan-18 16:26 35.508352 -119.710790 291 30261ft 373kts
06-Jan-18 16:27 35.564103 -119.818194 290 30255ft 371kts
06-Jan-18 16:28 35.619293 -119.924858 290 30217ft 369kts
06-Jan-18 16:29 35.653741 -120.037189 269 30237ft 340kts
06-Jan-18 16:30 35.664067 -120.152760 270 30172ft 341kts
06-Jan-18 16:31 35.675473 -120.268392 270 30171ft 341kts
06-Jan-18 16:32 35.696981 -120.383621 284 30208ft 360kts
06-Jan-18 16:33 35.740845 -120.495061 284 30229ft 360kts
06-Jan-18 16:34 35.783173 -120.606739 284 30164ft 357kts
06-Jan-18 16:35 35.825170 -120.717324 284 30197ft 361kts
06-Jan-18 16:36 35.867914 -120.830048 284 30213ft 364kts
06-Jan-18 16:37 35.910884 -120.944016 284 30248ft 368kts
06-Jan-18 16:38 35.954002 -121.058448 283 30258ft 368kts
06-Jan-18 16:39 35.996737 -121.172482 283 30249ft 365kts
06-Jan-18 16:40 36.039082 -121.286024 284 30181ft 361kts
06-Jan-18 16:41 36.096450 -121.388820 313 28615ft 401kts
06-Jan-18 16:42 36.191053 -121.459488 317 26657ft 386kts
06-Jan-18 16:43 36.279676 -121.529588 320 24799ft 371kts
06-Jan-18 16:44 36.365316 -121.596687 321 23153ft 358kts
06-Jan-18 16:45 36.441875 -121.656923 322 22179ft 352kts
06-Jan-18 16:46 36.523401 -121.721183 322 20590ft 342kts
06-Jan-18 16:47 36.603128 -121.784237 323 18954ft 335kts
06-Jan-18 16:48 36.680833 -121.845871 323 17233ft 327kts
06-Jan-18 16:49 36.758938 -121.899846 339 15572ft 323kts
06-Jan-18 16:50 36.846839 -121.923350 341 13985ft 321kts
06-Jan-18 16:51 36.933129 -121.947664 341 12499ft 316kts
06-Jan-18 16:52 37.013946 -121.977060 336 11355ft 293kts
06-Jan-18 16:53 37.090584 -122.007102 338 9955ft 285kts
06-Jan-18 16:54 37.166518 -122.036872 339 8635ft 286kts
06-Jan-18 16:55 37.241171 -122.066123 339 7370ft 275kts
06-Jan-18 16:56 37.313887 -122.094697 340 6118ft 271kts
06-Jan-18 16:57 37.381060 -122.121558 341 5413ft 242kts
06-Jan-18 16:58 37.445058 -122.146713 341 4238ft 236kts
06-Jan-18 16:59 37.509273 -122.166625 346 3131ft 236kts
06-Jan-18 17:00 37.552629 -122.216599 297 2615ft 218kts
06-Jan-18 17:01 37.579408 -122.281045 299 1327ft 185kts
06-Jan-18 17:02 37.598966 -122.327713 297 560ft 130kts
06-Jan-18 17:03 37.615811 -122.368096 298 28ft 120kts
06-Jan-18 17:04 37.621231 -122.383232 203 27ft 17kts
06-Jan-18 17:05 37.621488 -122.386403 295 27ft 14kts
06-Jan-18 17:06 37.622037 -122.391236 213 27ft 16kts
06-Jan-18 17:07 37.619103 -122.390869 116 27ft 15kts
06-Jan-18 17:08 37.618039 -122.388535 140 27ft 2kts
06-Jan-18 17:09 37.617947 -122.388437 139 27ft 0kts
06-Jan-18 17:10 37.617947 -122.388437 139 27ft 0kts

Navigation Log

Ident Type
1. KPSP Airport
2. PSP Navaid
3. YUCCA Fix
4. OKACO Fix
5. SOGGI Fix
6. APLES Fix
7. ZOREN Fix
8. PMD Navaid
9. AVE Navaid
10. MAKRS Fix
11. KSFO Airport